Time;durP1;ratioP1;P1;durP2;ratioP2;P2;SDS_P1;SDS_P2;PMS_P1;PMS_P2;Temp;Humidity;BMP_temperature;BMP_pressure;BME280_temperature;BME280_humidity;BME280_pressure;Samples;Min_cycle;Max_cycle;Signal;HPM_P1;HPM_P2
2023/06/26 00:02:12;;;;;;;8.68;7.97;;;21.90;99.90;;;;;;5094236;28;20169;-67
2023/06/26 00:04:38;;;;;;;8.93;8.10;;;21.80;99.90;;;;;;5094168;28;20247;-68
2023/06/26 00:07:04;;;;;;;8.23;7.47;;;21.80;99.90;;;;;;5075918;28;20279;-68
2023/06/26 00:09:30;;;;;;;10.30;9.57;;;21.70;99.90;;;;;;5092554;28;20170;-68
2023/06/26 00:11:56;;;;;;;11.05;10.00;;;21.70;99.90;;;;;;5094248;28;20192;-68
2023/06/26 00:14:21;;;;;;;9.73;8.82;;;21.60;99.90;;;;;;5093727;28;20506;-68
2023/06/26 00:16:49;;;;;;;10.18;9.38;;;21.60;99.90;;;;;;5094069;28;20211;-68
2023/06/26 00:19:15;;;;;;;9.52;8.82;;;21.50;99.90;;;;;;5075329;28;20201;-68
2023/06/26 00:21:47;;;;;;;10.85;9.90;;;21.50;99.90;;;;;;5093691;28;20659;-68
2023/06/26 00:24:17;;;;;;;8.80;8.07;;;21.40;99.90;;;;;;5093778;28;20222;-68
2023/06/26 00:26:43;;;;;;;9.38;8.68;;;21.40;99.90;;;;;;5093699;28;20189;-68
2023/06/26 00:29:08;;;;;;;9.77;8.88;;;21.40;99.90;;;;;;5093462;28;20216;-67
2023/06/26 00:31:35;;;;;;;9.32;7.25;;;21.30;99.90;;;;;;5093509;28;20197;-67
2023/06/26 00:34:01;;;;;;;8.75;8.02;;;21.20;99.90;;;;;;5093812;28;20166;-67
2023/06/26 00:36:27;;;;;;;8.40;7.80;;;21.20;99.90;;;;;;5093359;28;20189;-68
2023/06/26 00:38:53;;;;;;;9.63;8.77;;;21.20;99.90;;;;;;5093493;28;20288;-67
2023/06/26 00:41:19;;;;;;;9.00;8.30;;;21.10;99.90;;;;;;5092885;28;20619;-68
2023/06/26 00:43:45;;;;;;;10.40;9.50;;;21.10;99.90;;;;;;5093409;28;20166;-67
2023/06/26 00:46:12;;;;;;;14.55;13.48;;;21.10;99.90;;;;;;5093274;28;20286;-68
2023/06/26 00:48:40;;;;;;;8.18;7.47;;;21.10;99.90;;;;;;5093411;28;20181;-68
2023/06/26 00:51:06;;;;;;;8.65;7.93;;;21.00;99.90;;;;;;5093052;28;20205;-68
2023/06/26 00:53:33;;;;;;;7.82;7.10;;;20.90;99.90;;;;;;5093173;28;20633;-67
2023/06/26 00:56:00;;;;;;;11.65;10.82;;;20.90;99.90;;;;;;5092313;28;20276;-67
2023/06/26 00:58:26;;;;;;;9.90;9.10;;;20.90;99.90;;;;;;5092994;28;20238;-68
2023/06/26 01:00:52;;;;;;;10.45;9.75;;;20.90;99.90;;;;;;5074797;28;20165;-68
2023/06/26 01:03:19;;;;;;;10.38;9.55;;;20.90;99.90;;;;;;5093078;28;20601;-68
2023/06/26 01:05:45;;;;;;;12.32;11.43;;;20.90;99.90;;;;;;5092770;28;20181;-68
2023/06/26 01:08:13;;;;;;;8.80;8.10;;;20.90;99.90;;;;;;5092485;28;20651;-67
2023/06/26 01:10:39;;;;;;;9.02;8.43;;;20.90;99.90;;;;;;5093120;28;20516;-68
2023/06/26 01:13:05;;;;;;;9.40;8.50;;;21.00;99.90;;;;;;5074572;28;20239;-68
2023/06/26 01:15:30;;;;;;;9.45;8.65;;;20.90;99.90;;;;;;5092662;28;20197;-68
2023/06/26 01:18:03;;;;;;;8.93;8.23;;;20.90;99.90;;;;;;5092377;28;20565;-68
2023/06/26 01:20:34;;;;;;;8.60;7.63;;;20.90;99.90;;;;;;5091996;28;20177;-68
2023/06/26 01:23:10;;;;;;;8.82;8.00;;;20.90;99.90;;;;;;5092659;28;20174;-68
2023/06/26 01:25:51;;;;;;;7.80;7.10;;;20.90;99.90;;;;;;5092400;28;20200;-68
2023/06/26 01:28:19;;;;;;;8.80;7.70;;;20.70;99.90;;;;;;5092515;28;20178;-68
2023/06/26 01:30:45;;;;;;;10.38;8.38;;;20.70;99.90;;;;;;5092269;28;20223;-68
2023/06/26 01:33:13;;;;;;;8.43;7.72;;;20.70;99.90;;;;;;5092259;28;20177;-67
2023/06/26 01:35:39;;;;;;;9.18;8.23;;;20.60;99.90;;;;;;5091918;28;20197;-68
2023/06/26 01:38:23;;;;;;;8.73;7.90;;;20.60;99.90;;;;;;5092307;28;20263;-68
2023/06/26 01:40:50;;;;;;;10.77;9.88;;;20.60;99.90;;;;;;5092125;28;20161;-68
2023/06/26 01:43:25;;;;;;;9.05;8.25;;;20.60;99.90;;;;;;5092132;28;20261;-68
2023/06/26 01:45:54;;;;;;;8.45;7.75;;;20.60;99.90;;;;;;5091808;28;20189;-67
2023/06/26 01:48:25;;;;;;;11.15;10.25;;;20.60;99.90;;;;;;5091741;28;20182;-68
2023/06/26 01:50:52;;;;;;;11.73;10.77;;;20.60;99.90;;;;;;5091893;28;20184;-67
2023/06/26 01:53:23;;;;;;;8.75;7.95;;;20.60;99.90;;;;;;5091885;28;20178;-68
2023/06/26 01:55:55;;;;;;;9.65;8.75;;;20.70;99.90;;;;;;5090986;28;20276;-67
2023/06/26 01:58:24;;;;;;;9.35;8.55;;;20.60;99.90;;;;;;5091804;28;20205;-68
2023/06/26 02:00:50;;;;;;;10.30;9.43;;;20.70;99.90;;;;;;5091689;28;20202;-68
2023/06/26 02:03:15;;;;;;;10.20;9.40;;;20.70;99.90;;;;;;5091883;28;20209;-68
2023/06/26 02:05:41;;;;;;;10.27;9.25;;;20.60;99.90;;;;;;5091702;28;20213;-68
2023/06/26 02:08:08;;;;;;;10.57;8.70;;;20.60;99.90;;;;;;5091773;28;20197;-68
2023/06/26 02:10:34;;;;;;;9.80;8.82;;;20.60;99.90;;;;;;5091515;28;20179;-68
2023/06/26 02:13:00;;;;;;;8.02;7.32;;;20.60;99.90;;;;;;5091996;28;20196;-68
2023/06/26 02:15:26;;;;;;;8.45;7.65;;;20.60;99.90;;;;;;5073412;28;20296;-67
2023/06/26 02:17:51;;;;;;;8.95;8.15;;;20.60;99.90;;;;;;5091445;28;20322;-67
2023/06/26 02:20:17;;;;;;;9.90;9.10;;;20.60;99.90;;;;;;5091311;28;20177;-67
2023/06/26 02:22:43;;;;;;;9.73;8.93;;;20.60;99.90;;;;;;5091952;28;20177;-68
2023/06/26 02:25:10;;;;;;;7.80;7.15;;;20.60;99.90;;;;;;5091397;28;20211;-67
2023/06/26 02:27:35;;;;;;;8.95;8.15;;;20.60;99.90;;;;;;5091424;28;20166;-68
2023/06/26 02:30:01;;;;;;;9.35;8.55;;;20.60;99.90;;;;;;5090804;28;20185;-68
2023/06/26 02:32:27;;;;;;;10.02;9.13;;;20.50;99.90;;;;;;5090666;28;20590;-68
2023/06/26 02:34:53;;;;;;;12.10;9.27;;;20.60;99.90;;;;;;5091318;28;20694;-67
2023/06/26 02:37:19;;;;;;;10.40;9.45;;;20.50;99.90;;;;;;5091244;28;20609;-67
2023/06/26 02:39:45;;;;;;;9.55;7.90;;;20.40;99.90;;;;;;5091571;28;20193;-67
2023/06/26 02:42:10;;;;;;;9.70;8.93;;;20.40;99.90;;;;;;5091305;28;20176;-68
2023/06/26 02:44:36;;;;;;;9.48;8.68;;;20.40;99.90;;;;;;5090408;28;20568;-68
2023/06/26 02:47:01;;;;;;;10.88;9.98;;;20.40;99.90;;;;;;5091264;28;20682;-68
2023/06/26 02:49:27;;;;;;;10.85;10.00;;;20.40;99.90;;;;;;5072815;28;20173;-68
2023/06/26 02:51:53;;;;;;;8.10;7.47;;;20.50;99.90;;;;;;5091115;28;20650;-68
2023/06/26 02:54:18;;;;;;;11.20;9.98;;;20.50;99.90;;;;;;5091202;28;20200;-68
2023/06/26 02:56:44;;;;;;;10.07;8.90;;;20.60;99.90;;;;;;5091011;28;20198;-68
2023/06/26 02:59:09;;;;;;;10.38;9.52;;;20.70;99.90;;;;;;5090941;28;20258;-68
2023/06/26 03:01:35;;;;;;;10.10;8.88;;;20.70;99.90;;;;;;5091315;28;20252;-68
2023/06/26 03:04:00;;;;;;;11.55;10.43;;;20.80;99.90;;;;;;5090717;28;20181;-68
2023/06/26 03:06:27;;;;;;;11.57;10.38;;;20.90;99.90;;;;;;5090928;28;20200;-68
2023/06/26 03:08:53;;;;;;;10.90;10.00;;;20.90;99.90;;;;;;5091175;28;20192;-67
2023/06/26 03:11:19;;;;;;;11.07;10.18;;;21.00;99.90;;;;;;5090643;28;20173;-68
2023/06/26 03:13:45;;;;;;;12.32;10.10;;;21.00;99.90;;;;;;5090994;28;20207;-68
2023/06/26 03:16:10;;;;;;;8.18;7.38;;;21.00;99.90;;;;;;5090736;28;20747;-67
2023/06/26 03:18:36;;;;;;;8.07;7.30;;;21.00;99.90;;;;;;5090556;28;20223;-68
2023/06/26 03:21:02;;;;;;;8.75;8.00;;;21.00;99.90;;;;;;5090788;28;20174;-69
2023/06/26 03:23:27;;;;;;;9.10;8.23;;;20.90;99.90;;;;;;5090880;28;20687;-67
2023/06/26 03:25:53;;;;;;;11.20;8.20;;;20.90;99.90;;;;;;5090808;28;20189;-68
2023/06/26 03:28:19;;;;;;;9.05;8.25;;;20.90;99.90;;;;;;5091031;28;20177;-67
2023/06/26 03:30:44;;;;;;;9.05;8.13;;;20.80;99.90;;;;;;5090459;28;20209;-68
2023/06/26 03:33:10;;;;;;;11.00;8.45;;;20.70;99.90;;;;;;5090551;28;20544;-68
2023/06/26 03:35:36;;;;;;;9.85;8.10;;;20.70;99.90;;;;;;5090809;28;20659;-68
2023/06/26 03:38:03;;;;;;;8.43;7.72;;;20.60;99.90;;;;;;5072474;28;20197;-68
2023/06/26 03:40:28;;;;;;;10.53;9.53;;;20.60;99.90;;;;;;5090545;28;20219;-67
2023/06/26 03:42:54;;;;;;;10.25;9.25;;;20.60;99.90;;;;;;5090646;28;20207;-67
2023/06/26 03:45:20;;;;;;;10.98;10.18;;;20.60;99.90;;;;;;5093775;28;20194;-68
2023/06/26 03:47:48;;;;;;;11.25;9.75;;;20.60;99.90;;;;;;5094445;28;20169;-68
2023/06/26 03:50:17;;;;;;;10.07;9.27;;;20.70;99.90;;;;;;5093814;28;20261;-68
2023/06/26 03:52:42;;;;;;;11.90;10.90;;;20.70;99.90;;;;;;5076232;28;20238;-68
2023/06/26 03:55:08;;;;;;;12.38;11.27;;;20.70;99.90;;;;;;5094291;28;20190;-68
2023/06/26 03:57:34;;;;;;;11.73;9.95;;;20.60;99.90;;;;;;5094337;28;20693;-68
2023/06/26 04:00:00;;;;;;;9.93;8.90;;;20.70;99.90;;;;;;5094195;28;20166;-68
2023/06/26 04:02:25;;;;;;;11.13;10.32;;;20.70;99.90;;;;;;5094442;28;20269;-68
2023/06/26 04:04:52;;;;;;;12.68;11.38;;;20.60;99.90;;;;;;5094220;28;20196;-68
2023/06/26 04:07:18;;;;;;;9.75;8.75;;;20.60;99.90;;;;;;5093805;28;20192;-68
2023/06/26 04:09:44;;;;;;;11.15;10.30;;;20.60;99.90;;;;;;5093538;28;20173;-67
2023/06/26 04:12:10;;;;;;;11.50;10.65;;;20.70;99.90;;;;;;5075701;28;20182;-68
2023/06/26 04:14:36;;;;;;;14.32;12.25;;;20.80;99.90;;;;;;5093946;28;20177;-68
2023/06/26 04:17:04;;;;;;;9.60;8.70;;;20.80;99.90;;;;;;5094164;28;20178;-69
2023/06/26 04:19:30;;;;;;;14.30;12.85;;;20.90;99.90;;;;;;5093687;28;20180;-68
2023/06/26 04:21:56;;;;;;;13.70;12.75;;;21.00;99.90;;;;;;5093867;28;20639;-68
2023/06/26 04:24:21;;;;;;;18.15;16.95;;;21.00;99.90;;;;;;5093445;28;20553;-68
2023/06/26 04:26:47;;;;;;;15.85;14.63;;;21.10;99.90;;;;;;5093582;28;20253;-68
2023/06/26 04:29:13;;;;;;;20.65;19.25;;;21.20;99.90;;;;;;5093507;28;20193;-68
2023/06/26 04:31:39;;;;;;;18.63;17.40;;;21.20;99.90;;;;;;5093672;28;20170;-68
2023/06/26 04:34:05;;;;;;;18.40;17.20;;;21.30;99.90;;;;;;5093540;28;20248;-68
2023/06/26 04:36:33;;;;;;;16.50;15.40;;;21.30;99.90;;;;;;5093468;28;20228;-68
2023/06/26 04:38:58;;;;;;;7.45;6.75;;;21.30;99.90;;;;;;5093600;28;20254;-68
2023/06/26 04:41:24;;;;;;;9.38;8.48;;;21.30;99.90;;;;;;5092688;28;20646;-68
2023/06/26 04:43:50;;;;;;;7.82;7.00;;;21.30;99.90;;;;;;5093312;28;20173;-67
2023/06/26 04:46:16;;;;;;;9.10;8.30;;;21.40;99.90;;;;;;5093305;28;20237;-68
2023/06/26 04:48:41;;;;;;;7.63;6.78;;;21.40;99.90;;;;;;5093511;28;20177;-68
2023/06/26 04:51:07;;;;;;;9.10;7.38;;;21.40;99.90;;;;;;5092844;28;20191;-68
2023/06/26 04:53:32;;;;;;;9.77;8.45;;;21.50;99.90;;;;;;5093217;28;20170;-69
2023/06/26 04:55:58;;;;;;;7.40;6.70;;;21.60;99.90;;;;;;5091694;28;20703;-68
2023/06/26 04:58:24;;;;;;;16.25;8.45;;;21.60;99.90;;;;;;5092770;28;20757;-67
2023/06/26 05:00:49;;;;;;;6.93;6.32;;;21.60;99.90;;;;;;5092807;28;20237;-68
2023/06/26 05:03:17;;;;;;;8.20;7.45;;;21.70;99.90;;;;;;5092737;28;20184;-68
2023/06/26 05:05:42;;;;;;;7.93;6.60;;;21.80;99.90;;;;;;5074700;28;20242;-68
2023/06/26 05:08:22;;;;;;;6.82;6.13;;;21.80;99.90;;;;;;5092818;28;20189;-68
2023/06/26 05:10:48;;;;;;;6.70;6.10;;;21.80;99.90;;;;;;5092770;28;20248;-68
2023/06/26 05:13:17;;;;;;;6.78;6.07;;;21.80;99.90;;;;;;5092540;28;20280;-69
2023/06/26 05:15:46;;;;;;;6.55;5.55;;;21.80;99.90;;;;;;5092775;28;20189;-69
2023/06/26 05:18:12;;;;;;;7.93;7.00;;;21.70;99.90;;;;;;5074586;28;20255;-68
2023/06/26 05:20:38;;;;;;;7.03;6.43;;;21.60;99.90;;;;;;5092546;28;20169;-67
2023/06/26 05:23:04;;;;;;;10.18;9.27;;;21.60;99.90;;;;;;5092787;28;20201;-68
2023/06/26 05:25:31;;;;;;;7.55;6.85;;;21.70;99.90;;;;;;5092547;28;20243;-68
2023/06/26 05:27:57;;;;;;;7.75;7.15;;;21.80;99.90;;;;;;5092117;28;20631;-68
2023/06/26 05:30:27;;;;;;;8.95;7.43;;;21.90;99.90;;;;;;5092095;28;20178;-68
2023/06/26 05:32:54;;;;;;;9.73;7.13;;;22.00;99.90;;;;;;5092527;28;20219;-67
2023/06/26 05:35:23;;;;;;;8.38;6.47;;;21.90;99.90;;;;;;5092504;28;20655;-67
2023/06/26 05:37:50;;;;;;;8.65;6.97;;;21.80;99.90;;;;;;5092263;28;20292;-68
2023/06/26 05:40:17;;;;;;;7.47;6.88;;;21.80;99.90;;;;;;5092097;28;20567;-68
2023/06/26 05:42:43;;;;;;;8.93;7.68;;;21.80;99.90;;;;;;5092501;28;20226;-68
2023/06/26 05:45:10;;;;;;;9.40;7.78;;;21.80;99.90;;;;;;5091895;28;20601;-68
2023/06/26 05:47:35;;;;;;;8.10;7.40;;;21.70;99.90;;;;;;5092317;28;20311;-68
2023/06/26 05:50:02;;;;;;;7.35;5.90;;;21.70;99.90;;;;;;5078652;28;20265;-69
2023/06/26 05:52:28;;;;;;;7.75;6.07;;;21.80;99.90;;;;;;5078144;28;20186;-70
2023/06/26 05:54:54;;;;;;;5.38;4.90;;;22.20;99.90;;;;;;5073143;28;20558;-69
2023/06/26 05:57:20;;;;;;;7.15;6.45;;;22.40;99.90;;;;;;5091667;28;20170;-68
2023/06/26 05:59:46;;;;;;;6.60;6.00;;;22.70;99.90;;;;;;5073389;28;20581;-68
2023/06/26 06:02:12;;;;;;;6.03;5.50;;;22.80;99.90;;;;;;5091854;28;20169;-70
2023/06/26 06:04:38;;;;;;;7.07;6.38;;;22.80;99.90;;;;;;5073618;28;20639;-69
2023/06/26 06:07:04;;;;;;;5.72;5.20;;;22.70;99.90;;;;;;5091261;28;20268;-69
2023/06/26 06:09:29;;;;;;;6.72;5.35;;;22.60;99.90;;;;;;5091021;28;20521;-69
2023/06/26 06:11:55;;;;;;;5.78;5.28;;;22.60;99.90;;;;;;5091559;28;20272;-69
2023/06/26 06:14:20;;;;;;;6.07;5.57;;;22.60;99.90;;;;;;5091547;28;20172;-69
2023/06/26 06:16:46;;;;;;;8.60;5.63;;;22.60;99.90;;;;;;5091524;28;20205;-69
2023/06/26 06:19:13;;;;;;;7.95;5.15;;;22.60;99.90;;;;;;5091385;28;20276;-70
2023/06/26 06:21:39;;;;;;;10.80;8.73;;;22.40;99.90;;;;;;5091330;28;20534;-69
2023/06/26 06:24:06;;;;;;;10.52;6.53;;;22.30;99.90;;;;;;5091498;28;20173;-69
2023/06/26 06:26:32;;;;;;;6.68;6.07;;;22.20;99.90;;;;;;5091357;28;20189;-69
2023/06/26 06:28:58;;;;;;;6.38;5.45;;;22.10;99.90;;;;;;5091567;28;20173;-69
2023/06/26 06:31:23;;;;;;;8.23;5.43;;;22.10;99.90;;;;;;5091240;28;20169;-69
2023/06/26 06:33:49;;;;;;;8.23;6.53;;;22.00;99.90;;;;;;5091377;28;20193;-69
2023/06/26 06:36:15;;;;;;;9.48;6.40;;;21.80;99.90;;;;;;5091058;28;20243;-70
2023/06/26 06:38:43;;;;;;;7.75;7.00;;;21.70;99.90;;;;;;5091362;28;20201;-69
2023/06/26 06:41:09;;;;;;;8.82;6.47;;;21.40;99.90;;;;;;5090807;28;20165;-69
2023/06/26 06:43:35;;;;;;;7.50;6.10;;;21.50;99.90;;;;;;5091286;28;20532;-68
2023/06/26 06:46:01;;;;;;;8.40;6.70;;;21.60;99.90;;;;;;5090967;28;20655;-69
2023/06/26 06:48:27;;;;;;;8.13;5.63;;;22.10;99.90;;;;;;5090929;28;20181;-69
2023/06/26 06:50:52;;;;;;;8.50;7.05;;;22.50;99.90;;;;;;5090866;28;20535;-70
2023/06/26 06:53:22;;;;;;;7.90;7.07;;;22.90;99.90;;;;;;5091019;28;20252;-70
2023/06/26 06:55:48;;;;;;;7.95;5.60;;;23.20;99.90;;;;;;5091175;28;20209;-69
2023/06/26 06:58:16;;;;;;;6.38;5.53;;;23.30;99.90;;;;;;5090920;28;20571;-69
2023/06/26 07:00:42;;;;;;;6.20;5.15;;;23.40;99.90;;;;;;5090885;28;20530;-70
2023/06/26 07:03:08;;;;;;;8.25;7.30;;;23.20;99.90;;;;;;5091160;28;20238;-69
2023/06/26 07:05:33;;;;;;;6.93;5.50;;;23.10;99.90;;;;;;5090907;28;20651;-70
2023/06/26 07:07:59;;;;;;;6.45;5.75;;;23.10;99.90;;;;;;5089617;28;20193;-69
2023/06/26 07:10:24;;;;;;;7.75;6.97;;;22.90;99.90;;;;;;5090518;28;20178;-69
2023/06/26 07:12:50;;;;;;;9.43;5.63;;;22.50;99.90;;;;;;5091172;28;20183;-70
2023/06/26 07:15:16;;;;;;;8.63;6.22;;;22.40;99.90;;;;;;5072280;28;20205;-70
2023/06/26 07:17:42;;;;;;;10.85;7.13;;;22.20;99.90;;;;;;5091061;28;20680;-70
2023/06/26 07:20:09;;;;;;;6.20;5.50;;;22.20;99.90;;;;;;5093312;28;20173;-69
2023/06/26 07:22:36;;;;;;;6.95;6.25;;;22.20;99.90;;;;;;5095111;28;20176;-70
2023/06/26 07:25:03;;;;;;;6.50;5.90;;;22.10;99.90;;;;;;5095015;28;20195;-69
2023/06/26 07:27:29;;;;;;;9.00;6.35;;;22.10;99.90;;;;;;5094990;28;20176;-69
2023/06/26 07:29:55;;;;;;;9.52;5.80;;;22.40;99.90;;;;;;5094619;28;20174;-70
2023/06/26 07:32:20;;;;;;;5.93;5.32;;;22.90;99.90;;;;;;5094880;28;20211;-71
2023/06/26 07:34:46;;;;;;;5.30;4.70;;;23.50;99.90;;;;;;5094789;28;20659;-70
2023/06/26 07:37:11;;;;;;;8.55;5.78;;;23.90;99.90;;;;;;5094854;28;20820;-71
2023/06/26 07:39:37;;;;;;;9.25;5.55;;;24.30;99.90;;;;;;5094575;28;20168;-71
2023/06/26 07:42:03;;;;;;;8.75;6.32;;;24.70;99.90;;;;;;5094894;28;20170;-70
2023/06/26 07:44:28;;;;;;;6.32;4.65;;;25.00;99.90;;;;;;5092329;28;20204;-70
2023/06/26 07:46:54;;;;;;;11.30;5.00;;;25.20;99.90;;;;;;5094639;28;20178;-69
2023/06/26 07:49:20;;;;;;;5.70;4.10;;;25.50;99.90;;;;;;5094107;28;20633;-69
2023/06/26 07:51:45;;;;;;;6.90;4.60;;;25.80;99.90;;;;;;5094498;28;20643;-70
2023/06/26 07:54:11;;;;;;;8.55;5.05;;;25.60;99.90;;;;;;5094385;28;20203;-69
2023/06/26 07:56:54;;;;;;;7.28;5.10;;;25.50;99.90;;;;;;5093561;28;20197;-69
2023/06/26 07:59:20;;;;;;;5.57;5.00;;;25.70;99.90;;;;;;5093880;28;20200;-70
2023/06/26 08:01:46;;;;;;;8.68;7.65;;;25.90;99.90;;;;;;5076001;28;20209;-68
2023/06/26 08:04:12;;;;;;;8.88;6.38;;;25.80;99.90;;;;;;5094147;28;20197;-68
2023/06/26 08:06:40;;;;;;;5.72;5.10;;;25.60;99.90;;;;;;5094179;28;20185;-68
2023/06/26 08:09:07;;;;;;;7.03;5.07;;;25.50;99.90;;;;;;5094084;28;20711;-68
2023/06/26 08:11:33;;;;;;;7.47;5.18;;;25.40;99.90;;;;;;5093839;28;20173;-69
2023/06/26 08:13:59;;;;;;;6.28;5.30;;;25.40;99.90;;;;;;5094064;28;20639;-70
2023/06/26 08:16:24;;;;;;;8.02;5.40;;;25.20;99.90;;;;;;5093929;28;20202;-69
2023/06/26 08:18:50;;;;;;;7.05;5.10;;;25.00;99.90;;;;;;5094101;28;20222;-69
2023/06/26 08:21:16;;;;;;;5.45;4.90;;;25.10;99.90;;;;;;5093406;28;20174;-67
2023/06/26 08:23:42;;;;;;;7.15;4.55;;;25.50;99.90;;;;;;5093621;28;20182;-68
2023/06/26 08:26:07;;;;;;;6.43;4.97;;;25.70;99.90;;;;;;5093679;28;20697;-68
2023/06/26 08:28:33;;;;;;;10.63;5.50;;;25.50;99.90;;;;;;5093856;28;20201;-68
2023/06/26 08:30:59;;;;;;;8.85;4.95;;;25.50;99.90;;;;;;5092826;28;20173;-68
2023/06/26 08:33:25;;;;;;;8.90;5.03;;;25.80;99.90;;;;;;5093660;28;20169;-68
2023/06/26 10:44:06;;;;;;;4.38;3.63;;;27.20;99.90;;;;;;5108228;27;20923;-70
2023/06/26 10:46:50;;;;;;;6.70;4.05;;;27.50;99.90;;;;;;5107991;28;20202;-68
2023/06/26 10:49:17;;;;;;;5.93;3.05;;;27.40;99.90;;;;;;5105670;28;20267;-69
2023/06/26 10:51:48;;;;;;;5.90;4.18;;;27.50;99.90;;;;;;5106873;28;20219;-69
2023/06/26 10:54:15;;;;;;;5.57;4.25;;;27.90;99.90;;;;;;5125940;22;20950;-68
2023/06/26 10:56:43;;;;;;;5.65;4.45;;;28.00;99.90;;;;;;5087428;28;20170;-68
2023/06/26 10:59:20;;;;;;;3.45;3.15;;;27.90;99.90;;;;;;5087885;28;20166;-69
2023/06/26 11:02:04;;;;;;;4.35;3.33;;;27.90;99.90;;;;;;5088142;28;20295;-70
2023/06/26 11:04:46;;;;;;;5.18;4.63;;;28.40;99.90;;;;;;5080024;28;20194;-68
2023/06/26 11:07:23;;;;;;;4.50;3.72;;;28.20;99.90;;;;;;5067853;28;20243;-68
2023/06/26 11:10:07;;;;;;;4.32;3.90;;;27.70;99.90;;;;;;5067266;28;20645;-68
2023/06/26 11:12:43;;;;;;;4.40;4.00;;;27.60;99.90;;;;;;5067273;28;20186;-68
2023/06/26 11:15:13;;;;;;;4.65;4.18;;;27.80;99.90;;;;;;5067548;28;20194;-67
2023/06/26 11:17:40;;;;;;;10.35;4.00;;;27.60;99.90;;;;;;5067803;28;20174;-68
2023/06/26 11:20:10;;;;;;;5.13;4.40;;;27.40;99.90;;;;;;5067223;28;20166;-69
2023/06/26 11:22:38;;;;;;;4.03;3.63;;;27.40;99.90;;;;;;5046902;28;20701;-67
2023/06/26 11:25:05;;;;;;;3.75;3.30;;;27.60;99.90;;;;;;5047491;28;20195;-68
2023/06/26 11:27:40;;;;;;;4.38;3.20;;;27.70;99.90;;;;;;5047311;28;20605;-69
2023/06/26 11:30:07;;;;;;;5.25;3.58;;;28.20;99.90;;;;;;5047512;28;20249;-69
2023/06/26 11:32:34;;;;;;;3.92;3.40;;;28.40;99.90;;;;;;5046730;28;20249;-69
2023/06/26 11:35:00;;;;;;;3.88;3.55;;;28.80;99.90;;;;;;5054905;28;20681;-69
2023/06/26 11:37:26;;;;;;;5.88;3.92;;;28.30;99.90;;;;;;5066905;28;20182;-69
2023/06/26 11:39:52;;;;;;;4.22;3.65;;;28.20;99.90;;;;;;5067132;28;20184;-69
2023/06/26 11:42:19;;;;;;;5.30;3.22;;;28.20;99.90;;;;;;5066123;28;20206;-69
2023/06/26 11:44:45;;;;;;;3.90;3.13;;;27.90;99.90;;;;;;5053679;28;20187;-69
2023/06/26 11:47:15;;;;;;;5.30;3.20;;;28.10;99.90;;;;;;5052989;28;20254;-69
2023/06/26 11:49:48;;;;;;;3.45;3.15;;;28.40;99.90;;;;;;5053313;28;20646;-68
2023/06/26 11:52:15;;;;;;;4.60;3.55;;;28.20;99.90;;;;;;5053026;28;20171;-68
2023/06/26 11:54:42;;;;;;;3.72;3.42;;;27.80;99.90;;;;;;5051148;28;20217;-68
2023/06/26 11:57:07;;;;;;;6.05;4.10;;;27.30;99.90;;;;;;5053490;28;20194;-68
2023/06/26 11:59:39;;;;;;;4.63;4.15;;;27.30;99.90;;;;;;5053391;28;20709;-68
2023/06/26 12:02:06;;;;;;;3.85;3.15;;;27.70;99.90;;;;;;5053425;28;20233;-68
2023/06/26 12:04:33;;;;;;;3.85;3.47;;;28.10;99.90;;;;;;5052772;28;20259;-68
2023/06/26 12:06:59;;;;;;;3.70;3.13;;;28.40;99.90;;;;;;5053536;28;20193;-68
2023/06/26 12:09:26;;;;;;;3.60;3.30;;;28.30;99.90;;;;;;5053252;28;20178;-68
2023/06/26 12:11:54;;;;;;;5.03;3.30;;;28.00;99.90;;;;;;5053366;28;20175;-67
2023/06/26 12:14:22;;;;;;;6.07;5.72;;;27.60;99.90;;;;;;5053025;28;20199;-68
2023/06/26 12:16:47;;;;;;;3.80;3.50;;;26.80;99.90;;;;;;5053212;28;20277;-67
2023/06/26 12:19:14;;;;;;;3.92;3.35;;;26.30;99.90;;;;;;5052993;28;20197;-68
2023/06/26 12:21:46;;;;;;;7.20;3.40;;;25.50;99.90;;;;;;5053161;28;20543;-67
2023/06/26 12:24:17;;;;;;;7.53;3.22;;;25.20;99.90;;;;;;5052978;28;20190;-68
2023/06/26 12:26:49;;;;;;;3.75;2.95;;;25.80;99.90;;;;;;5052980;28;20263;-69
2023/06/26 12:29:17;;;;;;;4.20;3.13;;;26.70;99.90;;;;;;5052849;28;20171;-68
2023/06/26 12:31:53;;;;;;;4.10;3.08;;;27.70;99.90;;;;;;5052963;28;20201;-67
2023/06/26 12:34:28;;;;;;;6.30;3.05;;;27.90;99.90;;;;;;5052425;28;20190;-68
2023/06/26 12:36:53;;;;;;;5.47;4.05;;;27.90;99.90;;;;;;5052814;28;20248;-67
2023/06/26 12:39:24;;;;;;;5.10;3.38;;;27.70;99.90;;;;;;5052251;28;20622;-69
2023/06/26 12:41:58;;;;;;;8.00;3.25;;;27.30;99.90;;;;;;5052663;28;20229;-71
2023/06/26 12:44:29;;;;;;;5.43;3.08;;;27.20;99.90;;;;;;5051934;28;20195;-69
2023/06/26 12:47:02;;;;;;;3.95;3.60;;;26.70;99.90;;;;;;5053143;28;20563;-69
2023/06/26 12:49:34;;;;;;;3.42;3.13;;;26.60;99.90;;;;;;5051145;28;20182;-69
2023/06/26 12:52:01;;;;;;;4.30;4.10;;;26.30;99.90;;;;;;5052715;28;20174;-68
2023/06/26 12:54:27;;;;;;;3.72;3.42;;;26.10;99.90;;;;;;5051262;28;20218;-70
2023/06/26 12:56:53;;;;;;;4.05;3.75;;;26.10;99.90;;;;;;5051566;28;20179;-69
2023/06/26 12:59:20;;;;;;;3.25;3.05;;;26.50;99.90;;;;;;5052505;28;20183;-69
2023/06/26 13:01:45;;;;;;;8.90;3.17;;;26.40;99.90;;;;;;5052238;28;20569;-68
2023/06/26 13:04:11;;;;;;;8.02;5.80;;;26.00;99.90;;;;;;5051385;28;20193;-69
2023/06/26 13:06:36;;;;;;;6.53;5.90;;;25.70;99.90;;;;;;5051875;28;20206;-67
2023/06/26 13:09:05;;;;;;;4.70;4.30;;;25.50;99.90;;;;;;5052308;28;20171;-67
2023/06/26 13:11:31;;;;;;;3.50;2.55;;;25.70;99.90;;;;;;5052124;28;20167;-70
2023/06/26 13:13:58;;;;;;;4.13;3.30;;;26.30;99.90;;;;;;5051681;28;20677;-69
2023/06/26 13:16:23;;;;;;;7.82;2.88;;;26.50;99.90;;;;;;5052021;28;20171;-70
2023/06/26 13:18:49;;;;;;;3.13;2.88;;;26.60;99.90;;;;;;5050978;28;20186;-69
2023/06/26 13:21:16;;;;;;;3.47;2.95;;;26.70;99.90;;;;;;5051624;28;20206;-67
2023/06/26 13:23:41;;;;;;;4.60;3.85;;;26.50;99.90;;;;;;5051206;28;20349;-69
2023/06/26 13:26:07;;;;;;;5.00;3.38;;;26.30;99.90;;;;;;5051863;28;20190;-69
2023/06/26 13:28:33;;;;;;;3.53;3.00;;;26.10;99.90;;;;;;5051450;28;20570;-69
2023/06/26 13:30:58;;;;;;;7.80;2.78;;;26.00;99.90;;;;;;5051915;28;20650;-70
2023/06/26 13:33:27;;;;;;;4.22;3.80;;;26.10;99.90;;;;;;5051174;28;20264;-70
2023/06/26 13:35:53;;;;;;;4.78;2.92;;;25.90;99.90;;;;;;5051304;28;20669;-70
2023/06/26 13:38:25;;;;;;;3.60;3.03;;;26.10;99.90;;;;;;5051547;28;20166;-69
2023/06/26 13:40:56;;;;;;;4.20;3.65;;;26.60;99.90;;;;;;5051542;28;20561;-69
2023/06/26 13:43:22;;;;;;;3.58;3.28;;;26.90;99.90;;;;;;5050998;28;20191;-68
2023/06/26 13:45:49;;;;;;;6.43;3.40;;;26.90;99.90;;;;;;5051601;28;20183;-69
2023/06/26 13:48:15;;;;;;;3.42;3.03;;;26.40;99.90;;;;;;5051459;28;20175;-69
2023/06/26 13:50:41;;;;;;;3.42;3.17;;;26.20;99.90;;;;;;5051118;28;20174;-68
2023/06/26 13:53:06;;;;;;;3.33;3.13;;;26.30;99.90;;;;;;5051233;28;20642;-68
2023/06/26 13:55:34;;;;;;;4.38;3.97;;;26.10;99.90;;;;;;5050358;28;20215;-70
2023/06/26 13:57:59;;;;;;;3.53;3.33;;;26.20;99.90;;;;;;5051321;28;20707;-68
2023/06/26 14:00:25;;;;;;;3.58;2.92;;;26.40;99.90;;;;;;5050642;28;20194;-69
2023/06/26 14:02:51;;;;;;;3.15;2.85;;;26.10;99.90;;;;;;5050745;28;20659;-70
2023/06/26 14:05:18;;;;;;;8.75;4.65;;;25.70;99.90;;;;;;5050711;28;20539;-70
2023/06/26 14:07:44;;;;;;;5.70;3.47;;;25.80;99.90;;;;;;5051061;28;20249;-69
2023/06/26 14:10:10;;;;;;;3.45;3.20;;;26.50;99.90;;;;;;5050814;28;20624;-69
2023/06/26 14:12:36;;;;;;;4.03;2.78;;;27.30;99.90;;;;;;5049128;28;20241;-68
2023/06/26 14:15:03;;;;;;;4.60;4.03;;;27.40;99.90;;;;;;5050832;28;20738;-70
2023/06/26 14:17:29;;;;;;;6.43;4.68;;;27.00;99.90;;;;;;5050778;28;20178;-70
2023/06/26 14:19:54;;;;;;;6.53;3.58;;;26.50;99.90;;;;;;5050992;28;20174;-70
2023/06/26 14:22:20;;;;;;;4.80;3.30;;;26.30;99.90;;;;;;5050434;28;20202;-69
2023/06/26 14:24:46;;;;;;;3.80;3.25;;;26.60;99.90;;;;;;5050497;28;20190;-71
2023/06/26 14:27:12;;;;;;;4.40;3.40;;;26.80;99.90;;;;;;5050589;28;20179;-70
2023/06/26 14:29:37;;;;;;;8.40;3.55;;;26.80;99.90;;;;;;5051116;28;20171;-69
2023/06/26 14:32:04;;;;;;;3.60;3.30;;;26.80;99.90;;;;;;5050959;28;20171;-71
2023/06/26 14:34:29;;;;;;;3.35;3.03;;;26.80;99.90;;;;;;5050360;28;20241;-70
2023/06/26 14:36:55;;;;;;;3.47;3.28;;;27.20;99.90;;;;;;5050518;28;20263;-69
2023/06/26 14:39:21;;;;;;;7.25;2.70;;;27.50;99.90;;;;;;5050739;28;20583;-70
2023/06/26 14:41:47;;;;;;;3.08;2.88;;;27.70;99.90;;;;;;5050802;28;20712;-70
2023/06/26 14:44:16;;;;;;;3.65;3.22;;;27.70;99.90;;;;;;5050464;28;20283;-69
2023/06/26 14:46:43;;;;;;;3.35;3.13;;;27.60;99.40;;;;;;5050025;28;20654;-69
2023/06/26 14:49:08;;;;;;;4.85;3.47;;;27.40;99.90;;;;;;5050426;28;20552;-68
2023/06/26 14:51:34;;;;;;;4.13;3.72;;;27.20;99.90;;;;;;5050592;28;20189;-69